Station History

Weather Underground - logo

Station Historical Data
Daily Summary for August 10, 2018 Units:  English    Metric   Both
« Previous Day
Next Day »
Daily Weekly Monthly Yearly Custom
  High: Low: Average:
Temperature: 100.7 °F 67 °F 83.9 °F
Dew Point: 67.3 °F 53.4 °F 62.6 °F
Humidity: 79 % 21 % 53 %
Wind Speed: 4.6 mph 0 mph 0.9 mph
Wind Gust: 2.4 mph - -
Wind:- - SW
Pressure: 29.91 in 29.80 in -
Precipitation: 0 in    
Historical Graphs
 
 
Tabular Data for August 10, 2018
Time Temperature Dew Point Pressure Wind Wind Speed Wind Gust Humidity Rainfall Rate (Hourly)
00:04 76.4 °F 65.1 °F 29.85 in Calm     68 % 0 in
00:09 76.5 °F 66 °F 29.85 in Calm     70 % 0 in
00:14 76.3 °F 65.8 °F 29.85 in Calm     70 % 0 in
00:19 76.1 °F 64.8 °F 29.85 in Calm     68 % 0 in
00:24 76 °F 64.2 °F 29.85 in Calm     67 % 0 in
00:29 76.1 °F 65.2 °F 29.85 in Calm     69 % 0 in
00:34 76 °F 65.1 °F 29.85 in Calm     69 % 0 in
00:39 76.2 °F 64.9 °F 29.85 in Calm     68 % 0 in
00:44 76.2 °F 65.7 °F 29.85 in Calm     70 % 0 in
00:49 75.8 °F 65.7 °F 29.85 in Calm     71 % 0 in
00:54 75.5 °F 65.8 °F 29.85 in Calm     72 % 0 in
00:59 75.4 °F 66.1 °F 29.85 in Calm     73 % 0 in
01:04 75.1 °F 65.9 °F 29.85 in Calm     73 % 0 in
01:09 74.8 °F 66 °F 29.85 in Calm     74 % 0 in
01:14 74.4 °F 66 °F 29.84 in Calm     75 % 0 in
01:19 74.3 °F 65.9 °F 29.84 in Calm     75 % 0 in
01:24 74.2 °F 65.8 °F 29.84 in Calm     75 % 0 in
01:29 74 °F 66 °F 29.84 in Calm     76 % 0 in
01:34 73.8 °F 65.8 °F 29.84 in Calm     76 % 0 in
01:39 73.5 °F 65.5 °F 29.84 in Calm     76 % 0 in
01:44 73.4 °F 65 °F 29.84 in Calm     75 % 0 in
01:49 73.4 °F 65 °F 29.85 in Calm     75 % 0 in
01:54 73.2 °F 64.4 °F 29.85 in Calm     74 % 0 in
01:59 73.1 °F 65.1 °F 29.85 in Calm     76 % 0 in
02:04 73.1 °F 65.5 °F 29.85 in Calm     77 % 0 in
02:09 73 °F 65.4 °F 29.84 in Calm     77 % 0 in
02:14 72.8 °F 64.8 °F 29.84 in Calm     76 % 0 in
02:19 72.9 °F 64.9 °F 29.84 in Calm     76 % 0 in
02:24 72.8 °F 65.2 °F 29.84 in Calm     77 % 0 in
02:29 72.6 °F 65 °F 29.84 in Calm     77 % 0 in
02:34 72.4 °F 64.4 °F 29.84 in Calm     76 % 0 in
02:39 72.2 °F 63.8 °F 29.85 in Calm     75 % 0 in
02:44 72 °F 64 °F 29.85 in Calm     76 % 0 in
02:49 71.5 °F 63.5 °F 29.85 in Calm     76 % 0 in
02:54 71.2 °F 63.2 °F 29.85 in Calm     76 % 0 in
02:59 71.1 °F 63.9 °F 29.85 in Calm     78 % 0 in
03:04 71 °F 63.4 °F 29.85 in Calm     77 % 0 in
03:09 70.9 °F 63.3 °F 29.85 in Calm     77 % 0 in
03:14 70.9 °F 63.3 °F 29.85 in Calm     77 % 0 in
03:19 71 °F 63.4 °F 29.85 in NE 1.2 mph   77 % 0 in
03:24 71 °F 63.4 °F 29.85 in Calm   0.1 mph 77 % 0 in
03:29 70.9 °F 63.3 °F 29.85 in Calm     77 % 0 in
03:34 71.2 °F 62.9 °F 29.85 in Calm     75 % 0 in
03:39 71.5 °F 62.8 °F 29.85 in Calm   0.1 mph 74 % 0 in
03:44 71.7 °F 63 °F 29.85 in Calm     74 % 0 in
03:49 71.8 °F 62.7 °F 29.85 in East 1.2 mph   73 % 0 in
03:54 71.7 °F 62.2 °F 29.86 in East 1.2 mph 0.1 mph 72 % 0 in
03:59 71.8 °F 61.9 °F 29.86 in Calm     71 % 0 in
04:04 71.9 °F 62 °F 29.86 in Calm     71 % 0 in
04:09 71.6 °F 61.7 °F 29.86 in Calm     71 % 0 in
04:14 71.3 °F 61.4 °F 29.86 in Calm     71 % 0 in
04:19 71.3 °F 61 °F 29.86 in Calm     70 % 0 in
04:24 71.2 °F 60.9 °F 29.86 in Calm     70 % 0 in
04:29 71.1 °F 61.2 °F 29.86 in Calm     71 % 0 in
04:34 70.9 °F 61.4 °F 29.86 in Calm     72 % 0 in
04:39 70.5 °F 61.4 °F 29.86 in Calm     73 % 0 in
04:44 69.9 °F 61.2 °F 29.86 in Calm     74 % 0 in
04:49 69.5 °F 61.2 °F 29.86 in Calm     75 % 0 in
04:54 69.2 °F 61.3 °F 29.86 in Calm     76 % 0 in
04:59 69 °F 60.7 °F 29.86 in Calm     75 % 0 in
05:04 69.5 °F 60.5 °F 29.86 in Calm     73 % 0 in
05:09 69.9 °F 60.1 °F 29.86 in Calm     71 % 0 in
05:14 70.2 °F 60.4 °F 29.86 in Calm     71 % 0 in
05:19 70.4 °F 60.5 °F 29.86 in Calm     71 % 0 in
05:24 70.1 °F 61 °F 29.86 in Calm     73 % 0 in
05:29 69.5 °F 60.8 °F 29.86 in Calm     74 % 0 in
05:34 69.2 °F 60.6 °F 29.86 in Calm     74 % 0 in
05:39 69 °F 60.7 °F 29.86 in Calm     75 % 0 in
05:44 68.7 °F 60.5 °F 29.86 in Calm     75 % 0 in
05:49 68.5 °F 60.6 °F 29.87 in Calm     76 % 0 in
05:54 68.2 °F 60 °F 29.87 in Calm     75 % 0 in
05:59 68.1 °F 60.2 °F 29.87 in Calm     76 % 0 in
06:04 67.9 °F 60.4 °F 29.87 in Calm     77 % 0 in
06:09 67.7 °F 60.6 °F 29.88 in Calm     78 % 0 in
06:14 67.4 °F 60.7 °F 29.88 in Calm     79 % 0 in
06:19 67.1 °F 60.4 °F 29.88 in Calm     79 % 0 in
06:24 67 °F 60.3 °F 29.88 in Calm     79 % 0 in
06:29 67.1 °F 60 °F 29.88 in Calm     78 % 0 in
06:34 67.1 °F 60 °F 29.88 in Calm     78 % 0 in
06:39 67.1 °F 59.6 °F 29.88 in Calm     77 % 0 in
06:44 67.1 °F 59.6 °F 29.88 in Calm     77 % 0 in
06:49 67.3 °F 60.2 °F 29.89 in Calm     78 % 0 in
06:54 67.4 °F 59.9 °F 29.89 in Calm     77 % 0 in
06:59 67.6 °F 59.8 °F 29.89 in Calm     76 % 0 in
07:04 67.9 °F 60.1 °F 29.89 in Calm     76 % 0 in
07:09 68.2 °F 60.3 °F 29.89 in Calm     76 % 0 in
07:14 68.6 °F 60 °F 29.90 in Calm     74 % 0 in
07:19 69.1 °F 60.5 °F 29.90 in Calm   0.1 mph 74 % 0 in
07:24 69.7 °F 60.7 °F 29.90 in Calm     73 % 0 in
07:29 70.6 °F 61.1 °F 29.90 in Calm     72 % 0 in
07:34 71.5 °F 61.2 °F 29.90 in SE 1.2 mph 0.2 mph 70 % 0 in
07:39 72.2 °F 61.5 °F 29.90 in SE 1.2 mph 0.1 mph 69 % 0 in
07:44 73.1 °F 61.5 °F 29.90 in SE 1.2 mph   67 % 0 in
07:49 73.7 °F 62.1 °F 29.90 in Calm     67 % 0 in
07:54 74.4 °F 61.4 °F 29.91 in SE 1.2 mph 0.5 mph 64 % 0 in
07:59 74.9 °F 62.3 °F 29.91 in SE 1.2 mph   65 % 0 in
08:04 75.1 °F 62.1 °F 29.90 in Calm     64 % 0 in
08:09 75.5 °F 61.6 °F 29.90 in SE 1.2 mph   62 % 0 in
08:14 76.3 °F 62.3 °F 29.90 in SE 1.2 mph   62 % 0 in
08:19 77 °F 62.5 °F 29.90 in SE 1.2 mph 0.3 mph 61 % 0 in
08:24 77.8 °F 63.7 °F 29.91 in Calm   0.1 mph 62 % 0 in
08:29 78.4 °F 63.4 °F 29.91 in SE 2.3 mph 0.6 mph 60 % 0 in
08:34 79.1 °F 64 °F 29.91 in Calm     60 % 0 in
08:39 79.8 °F 64.2 °F 29.90 in ESE 1.2 mph   59 % 0 in
08:44 80.6 °F 64 °F 29.91 in Calm     57 % 0 in
08:49 81.3 °F 64.1 °F 29.91 in Calm     56 % 0 in
08:54 81.6 °F 63.9 °F 29.91 in SE 1.2 mph   55 % 0 in
08:59 81.7 °F 64.5 °F 29.91 in ESE 1.2 mph 0.1 mph 56 % 0 in
09:04 82.1 °F 64.3 °F 29.91 in ESE 1.2 mph 0.5 mph 55 % 0 in
09:09 82.6 °F 63.7 °F 29.90 in ESE 1.2 mph 1.2 mph 53 % 0 in
09:14 82.8 °F 63.9 °F 29.90 in East 2.3 mph 1 mph 53 % 0 in
09:19 83.2 °F 64.3 °F 29.90 in SE 1.2 mph 0.7 mph 53 % 0 in
09:24 83.7 °F 64.8 °F 29.90 in SE 1.2 mph 0.2 mph 53 % 0 in
09:29 84.4 °F 64.9 °F 29.90 in ESE 3.5 mph 0.5 mph 52 % 0 in
09:34 85.1 °F 65.5 °F 29.90 in ESE 2.3 mph 0.6 mph 52 % 0 in
09:39 85.3 °F 64.6 °F 29.90 in East 2.3 mph 0.5 mph 50 % 0 in
09:44 85.6 °F 66 °F 29.90 in ESE 2.3 mph 1.2 mph 52 % 0 in
09:49 86.2 °F 65.9 °F 29.90 in South 1.2 mph 1 mph 51 % 0 in
09:54 86.8 °F 65.3 °F 29.90 in East 2.3 mph 0.7 mph 49 % 0 in
09:59 87.3 °F 65.8 °F 29.90 in ESE 1.2 mph 0.2 mph 49 % 0 in
10:04 87.8 °F 65.7 °F 29.90 in South 3.5 mph 0.3 mph 48 % 0 in
10:09 88.2 °F 66 °F 29.90 in SE 3.5 mph 1.1 mph 48 % 0 in
10:14 88.2 °F 66 °F 29.90 in SSE 3.5 mph 0.9 mph 48 % 0 in
10:19 88.1 °F 65.9 °F 29.90 in NE 2.3 mph 0.3 mph 48 % 0 in
10:24 88.6 °F 65.8 °F 29.90 in SSW 1 mph 0.6 mph 47 % 0 in
10:29 88.8 °F 65.4 °F 29.90 in South 3.5 mph 0.4 mph 46 % 0 in
10:34 89.1 °F 66.9 °F 29.90 in SSW 2.3 mph   48 % 0 in
10:39 89.5 °F 66 °F 29.90 in South 2.3 mph 0.1 mph 46 % 0 in
10:44 89.9 °F 65.7 °F 29.89 in SSW 3.5 mph 0.7 mph 45 % 0 in
10:49 90.1 °F 65.2 °F 29.90 in South 2.3 mph   44 % 0 in
10:54 90.2 °F 66 °F 29.90 in ESE 1.2 mph 0.1 mph 45 % 0 in
10:59 90.4 °F 65.5 °F 29.90 in South 2 mph 0.2 mph 44 % 0 in
11:04 90.5 °F 64.9 °F 29.90 in SSE 2.3 mph   43 % 0 in
11:09 90.8 °F 65.2 °F 29.90 in SSW 2.3 mph 0.1 mph 43 % 0 in
11:14 91.1 °F 65.5 °F 29.90 in SSE 1.2 mph 0.2 mph 43 % 0 in
11:19 91.3 °F 65.7 °F 29.89 in South 2.3 mph   43 % 0 in
11:24 91.7 °F 65.4 °F 29.90 in South 3.5 mph 0.9 mph 42 % 0 in
11:29 91.9 °F 66.2 °F 29.89 in South 1 mph 0.2 mph 43 % 0 in
11:34 92.4 °F 67.3 °F 29.90 in SSE 1.2 mph 0.7 mph 44 % 0 in
11:39 92.8 °F 66.3 °F 29.90 in South 2.3 mph 0.9 mph 42 % 0 in
11:44 93 °F 66.5 °F 29.90 in South 1.2 mph 0.4 mph 42 % 0 in
11:49 93.2 °F 65.3 °F 29.89 in SSE 2.3 mph 0.6 mph 40 % 0 in
11:54 93.4 °F 64.7 °F 29.89 in SSE 2.3 mph 0.6 mph 39 % 0 in
11:59 93.8 °F 65.8 °F 29.89 in SSE 2.3 mph 0.7 mph 40 % 0 in
12:04 93.9 °F 63.7 °F 29.89 in South 1.2 mph 0.7 mph 37 % 0 in
12:09 93.6 °F 63.4 °F 29.89 in SE 3.5 mph 0.3 mph 37 % 0 in
12:14 93.4 °F 65.5 °F 29.89 in SSW 1.2 mph   40 % 0 in
12:19 93.8 °F 66.5 °F 29.89 in SW 1.2 mph 0.5 mph 41 % 0 in
12:24 93.8 °F 64.3 °F 29.89 in South 2 mph 0.3 mph 38 % 0 in
12:29 93.5 °F 64.1 °F 29.89 in WNW 1.2 mph 0.4 mph 38 % 0 in
12:34 93.7 °F 65 °F 29.89 in WSW 1.2 mph 0.5 mph 39 % 0 in
12:39 94.5 °F 65 °F 29.88 in SSW 2.3 mph   38 % 0 in
12:44 95 °F 64.6 °F 29.88 in NW 4.6 mph 0.5 mph 37 % 0 in
12:49 95.5 °F 66.6 °F 29.88 in ESE 2.3 mph 0.4 mph 39 % 0 in
12:54 96.2 °F 64.1 °F 29.88 in ENE 3.5 mph 1.6 mph 35 % 0 in
12:59 96.1 °F 64 °F 29.88 in WNW 2.3 mph 1.4 mph 35 % 0 in
13:04 96 °F 64.7 °F 29.88 in NW 2.3 mph 0.9 mph 36 % 0 in
13:09 95.8 °F 63.8 °F 29.88 in NW 2 mph 0.5 mph 35 % 0 in
13:14 96.2 °F 64.1 °F 29.87 in NW 2.3 mph 0.4 mph 35 % 0 in
13:19 97.1 °F 62.3 °F 29.87 in SSE 2.3 mph 0.7 mph 32 % 0 in
13:24 97.8 °F 62 °F 29.87 in WNW 2.3 mph 0.9 mph 31 % 0 in
13:29 97.7 °F 62.9 °F 29.87 in NNW 1.2 mph 0.1 mph 32 % 0 in
13:34 97.1 °F 62.3 °F 29.87 in Calm     32 % 0 in
13:39 97 °F 63.1 °F 29.87 in SSE 1.2 mph 0.6 mph 33 % 0 in
13:44 97.2 °F 63.3 °F 29.87 in Calm     33 % 0 in
13:49 97.5 °F 61.8 °F 29.87 in Calm   0.1 mph 31 % 0 in
13:54 97.8 °F 60.2 °F 29.86 in WNW 1.2 mph 0.9 mph 29 % 0 in
13:59 97 °F 60.4 °F 29.86 in WNW 1.2 mph 0.7 mph 30 % 0 in
14:04 96.3 °F 60.7 °F 29.86 in NNW 1 mph 0.3 mph 31 % 0 in
14:09 96.3 °F 62.5 °F 29.86 in NNW 1.2 mph 0.3 mph 33 % 0 in
14:14 96.2 °F 62.4 °F 29.85 in North 1.2 mph   33 % 0 in
14:19 96.4 °F 63.5 °F 29.85 in NE 1 mph   34 % 0 in
14:24 96.4 °F 65.9 °F 29.85 in Calm     37 % 0 in
14:29 96.6 °F 66.1 °F 29.85 in Calm     37 % 0 in
14:34 97.3 °F 65.1 °F 29.85 in Calm   0.1 mph 35 % 0 in
14:39 97.6 °F 63.6 °F 29.85 in NW 2.3 mph 0.6 mph 33 % 0 in
14:44 97.7 °F 66.2 °F 29.84 in WNW 1.2 mph   36 % 0 in
14:49 98 °F 63.1 °F 29.84 in Calm     32 % 0 in
14:54 98 °F 64.9 °F 29.84 in SE 1.2 mph   34 % 0 in
14:59 98.1 °F 64.9 °F 29.84 in WSW 1.2 mph   34 % 0 in
15:04 97.9 °F 61.2 °F 29.84 in NW 2.3 mph 0.4 mph 30 % 0 in
15:09 97.9 °F 61.2 °F 29.84 in WNW 2.3 mph 0.8 mph 30 % 0 in
15:14 98.1 °F 59.4 °F 29.83 in WNW 1.2 mph 0.4 mph 28 % 0 in
15:19 98.4 °F 59.7 °F 29.83 in NW 3.5 mph 1.4 mph 28 % 0 in
15:24 98.5 °F 59.8 °F 29.83 in NW 4.6 mph 2.4 mph 28 % 0 in
15:29 98.6 °F 59.9 °F 29.83 in NW 3 mph 2.1 mph 28 % 0 in
15:34 98.8 °F 59 °F 29.83 in WNW 3.5 mph 1.8 mph 27 % 0 in
15:39 98.8 °F 60 °F 29.83 in NW 3.5 mph 1.6 mph 28 % 0 in
15:44 99 °F 60.2 °F 29.82 in NW 3 mph 2 mph 28 % 0 in
15:49 99 °F 59.2 °F 29.82 in NW 4 mph 2 mph 27 % 0 in
15:54 99 °F 59.2 °F 29.82 in NW 3.5 mph 0.8 mph 27 % 0 in
15:59 99.2 °F 58.3 °F 29.82 in NW 2.3 mph 1.5 mph 26 % 0 in
16:04 99.2 °F 57.2 °F 29.82 in NW 3.5 mph 1.7 mph 25 % 0 in
16:09 99.5 °F 58.5 °F 29.82 in NNW 2 mph 1.7 mph 26 % 0 in
16:14 99.5 °F 59.6 °F 29.82 in SW 3.5 mph 0.9 mph 27 % 0 in
16:19 99.5 °F 58.5 °F 29.82 in WNW 2.3 mph 1.9 mph 26 % 0 in
16:24 99.6 °F 57.5 °F 29.82 in NW 2.3 mph 2.2 mph 25 % 0 in
16:29 99.7 °F 58.7 °F 29.82 in NW 3.5 mph 1.7 mph 26 % 0 in
16:34 99.8 °F 58.8 °F 29.81 in West 2.3 mph 0.8 mph 26 % 0 in
16:39 99.9 °F 58.9 °F 29.81 in NW 3.5 mph 1.5 mph 26 % 0 in
16:44 100.1 °F 58 °F 29.81 in WNW 2.3 mph 0.5 mph 25 % 0 in
16:49 100.2 °F 59.1 °F 29.81 in NW 3.5 mph 1.8 mph 26 % 0 in
16:54 100.3 °F 60.3 °F 29.81 in WSW 1.2 mph 0.4 mph 27 % 0 in
16:59 100.5 °F 58.3 °F 29.81 in NW 3.5 mph 0.6 mph 25 % 0 in
17:04 100.5 °F 60.4 °F 29.81 in WNW 1.2 mph 0.1 mph 27 % 0 in
17:09 100.4 °F 57.1 °F 29.81 in NNW 3.5 mph 0.9 mph 24 % 0 in
17:14 100.5 °F 56 °F 29.81 in WNW 1.2 mph 0.1 mph 23 % 0 in
17:19 100.7 °F 57.3 °F 29.81 in WNW 3.5 mph 0.8 mph 24 % 0 in
17:24 100.6 °F 54.8 °F 29.81 in NW 2.3 mph 1.3 mph 22 % 0 in
17:29 100.4 °F 54.7 °F 29.81 in NW 2.3 mph 0.2 mph 22 % 0 in
17:34 100.5 °F 53.5 °F 29.81 in NW 1.2 mph 0.4 mph 21 % 0 in
17:39 100.7 °F 53.6 °F 29.81 in NW 1.2 mph 0.6 mph 21 % 0 in
17:44 100.5 °F 53.5 °F 29.81 in WNW 2 mph 1.5 mph 21 % 0 in
17:49 100.4 °F 53.4 °F 29.81 in NW 1.2 mph 0.5 mph 21 % 0 in
17:54 100.5 °F 56 °F 29.81 in NW 1.2 mph 0.5 mph 23 % 0 in
17:59 100.4 °F 54.7 °F 29.80 in NW 2.3 mph 1 mph 22 % 0 in
18:04 100.3 °F 55.8 °F 29.80 in WNW 2.3 mph 0.7 mph 23 % 0 in
18:09 100 °F 59 °F 29.80 in NW 1.2 mph   26 % 0 in
18:14 99.9 °F 59.9 °F 29.80 in WNW 1.2 mph 0.1 mph 27 % 0 in
18:19 99.8 °F 58.8 °F 29.80 in Calm   0.2 mph 26 % 0 in
18:24 99.6 °F 59.7 °F 29.80 in Calm   0.3 mph 27 % 0 in
18:29 99.3 °F 60.5 °F 29.80 in Calm     28 % 0 in
18:34 99.1 °F 61.3 °F 29.80 in Calm     29 % 0 in
18:39 99.1 °F 61.3 °F 29.80 in Calm     29 % 0 in
18:44 98.9 °F 60.1 °F 29.80 in Calm     28 % 0 in
18:49 97.8 °F 59.2 °F 29.80 in WNW 1 mph 0.1 mph 28 % 0 in
18:54 97.1 °F 59.6 °F 29.80 in Calm     29 % 0 in
18:59 96.7 °F 60.2 °F 29.80 in Calm     30 % 0 in
19:04 96.3 °F 58.9 °F 29.80 in NW 1.2 mph 1.3 mph 29 % 0 in
19:05 96.2 °F 57.8 °F 29.80 in NW 3.5 mph 0.5 mph 28 % 0 in
19:39 92.1 °F 61.3 °F 29.80 in Calm     36 % 0 in
19:44 91.5 °F 61.6 °F 29.81 in Calm     37 % 0 in
19:49 90.7 °F 63.1 °F 29.81 in Calm     40 % 0 in
19:54 89.8 °F 63 °F 29.81 in Calm     41 % 0 in
19:59 89 °F 62.2 °F 29.82 in Calm     41 % 0 in
20:04 88.6 °F 60.5 °F 29.82 in Calm     39 % 0 in
20:09 88.6 °F 61.2 °F 29.82 in Calm     40 % 0 in
20:14 88.3 °F 61.6 °F 29.82 in Calm     41 % 0 in
20:19 87.9 °F 60.6 °F 29.82 in Calm     40 % 0 in
20:24 87.5 °F 60.9 °F 29.82 in Calm     41 % 0 in
20:29 87.5 °F 61.6 °F 29.82 in Calm     42 % 0 in
20:34 87.4 °F 61.5 °F 29.83 in Calm     42 % 0 in
20:39 87.1 °F 61.2 °F 29.83 in Calm     42 % 0 in
20:44 86.7 °F 62.2 °F 29.83 in Calm     44 % 0 in
20:49 86.1 °F 62.3 °F 29.83 in Calm     45 % 0 in
20:54 85.4 °F 62.9 °F 29.83 in Calm     47 % 0 in
20:59 84.7 °F 61.6 °F 29.83 in Calm     46 % 0 in
21:04 84.3 °F 63.6 °F 29.84 in Calm     50 % 0 in
21:09 83.9 °F 62.7 °F 29.84 in Calm     49 % 0 in
21:14 83.6 °F 63.6 °F 29.84 in Calm     51 % 0 in
21:19 83.4 °F 65 °F 29.84 in Calm     54 % 0 in
21:24 82.8 °F 65 °F 29.84 in Calm     55 % 0 in
21:29 82.2 °F 65.4 °F 29.84 in Calm     57 % 0 in
21:34 81.8 °F 64.1 °F 29.84 in Calm     55 % 0 in
21:39 81.4 °F 64.7 °F 29.84 in Calm     57 % 0 in
21:44 81 °F 64.8 °F 29.84 in Calm     58 % 0 in
21:49 80.6 °F 64 °F 29.84 in Calm     57 % 0 in
21:54 80.2 °F 64.6 °F 29.84 in Calm     59 % 0 in
21:59 79.9 °F 64.8 °F 29.84 in Calm     60 % 0 in
22:04 79.6 °F 64 °F 29.84 in Calm     59 % 0 in
22:09 79.3 °F 65.6 °F 29.84 in Calm     63 % 0 in
22:14 79.1 °F 65.4 °F 29.84 in Calm     63 % 0 in
22:19 78.8 °F 64.2 °F 29.84 in Calm     61 % 0 in
22:24 78.6 °F 64.9 °F 29.84 in Calm     63 % 0 in
22:29 78.3 °F 63.7 °F 29.85 in Calm     61 % 0 in
22:34 78.3 °F 64.7 °F 29.85 in Calm     63 % 0 in
22:39 78.1 °F 64.9 °F 29.85 in Calm     64 % 0 in
22:44 77.9 °F 65.2 °F 29.85 in Calm     65 % 0 in
22:49 77.5 °F 64.8 °F 29.85 in Calm     65 % 0 in
22:54 77.3 °F 65.1 °F 29.85 in Calm     66 % 0 in
22:59 77.2 °F 65.8 °F 29.85 in Calm     68 % 0 in
23:04 77 °F 64.8 °F 29.85 in Calm     66 % 0 in
23:09 76.8 °F 64.6 °F 29.85 in Calm     66 % 0 in
23:14 76.7 °F 64 °F 29.86 in Calm     65 % 0 in
23:19 76.4 °F 64.6 °F 29.86 in Calm     67 % 0 in
23:24 75.9 °F 65 °F 29.86 in Calm     69 % 0 in
23:29 75.1 °F 64.2 °F 29.86 in SE 1.2 mph   69 % 0 in
23:34 74.8 °F 63.9 °F 29.86 in Calm     69 % 0 in
23:39 74.7 °F 63.9 °F 29.86 in Calm     69 % 0 in
23:44 74.6 °F 63.3 °F 29.86 in Calm     68 % 0 in
23:49 74.5 °F 63.2 °F 29.86 in Calm     68 % 0 in
23:54 74.2 °F 63.4 °F 29.86 in Calm     69 % 0 in
23:59 73.8 °F 63.4 °F 29.86 in Calm     70 % 0 in
Park Place, Exeter, Tulare County, California, USA
Compliments of Weather Underground - 2.75 mb